»·PEaware :: AAL2785 KLAX-KLAS

AAL2785 :: KLAX-KLAS

FLIGHT INFORMATION

Flight Status: Arrived
Operator:
American Airlines
More flights by this operator :: More flights under this callsign
Pilot: Anonymous 10623 (10623)
Aircraft: BOEING 737-800
(B738)
More flights by this aircraft type
Origin: KLAX Los Angeles Intl
United States
Destination: KLAS McCarran Intl
United States
More flights between these airports :: More routes between these airports
Route: ORCKA5 MISEN RNDRZ1
File this flight plan on PilotEdge
Remarks: RMK / SIMBRIEF
Altitude:
(Current/Filed)
27,000ft
Speed:
(Current/Filed)
405kts
Departed: 08-Apr-21 12:45 PM
Arrived: 08-Apr-21 01:33 PM
Distance/Time
Traveled:
205nm/0:47
Distance/Time
To Go:
Arrived

Flight Plot

Page will automatically refresh every two minutes.

Flight plan parsing failed; only flown route is shown


Map Options




Map Legend


Flown Route
Filed Route
Departure Airport
Arrival Airport
Navaid (VOR, NDB)
Fix

Horizontal Profiles

Position Reports

Time Latitude Longitude Heading Altitude Ground
Speed
08-Apr-21 12:11 33.939788 -118.407377 83 134ft 0kts
08-Apr-21 12:12 33.939788 -118.407377 83 134ft 0kts
08-Apr-21 12:13 33.939788 -118.407377 83 134ft 0kts
08-Apr-21 12:14 33.939788 -118.407377 83 134ft 0kts
08-Apr-21 12:15 33.939788 -118.407377 83 134ft 0kts
08-Apr-21 12:16 33.939788 -118.407377 83 134ft 0kts
08-Apr-21 12:17 33.939788 -118.407377 83 134ft 0kts
08-Apr-21 12:18 33.939788 -118.407377 83 134ft 0kts
08-Apr-21 12:19 33.939788 -118.407377 83 134ft 0kts
08-Apr-21 12:20 33.939788 -118.407377 83 134ft 0kts
08-Apr-21 12:21 33.939788 -118.407377 83 134ft 0kts
08-Apr-21 12:22 33.939788 -118.407377 83 134ft 0kts
08-Apr-21 12:23 33.939788 -118.407377 83 134ft 0kts
08-Apr-21 12:24 33.939788 -118.407377 83 134ft 0kts
08-Apr-21 12:25 33.939788 -118.407377 83 134ft 0kts
08-Apr-21 12:26 33.939788 -118.407377 83 134ft 0kts
08-Apr-21 12:27 33.939788 -118.407377 83 134ft 0kts
08-Apr-21 12:28 33.939788 -118.407377 83 134ft 0kts
08-Apr-21 12:29 33.939788 -118.407377 83 134ft 0kts
08-Apr-21 12:30 33.939788 -118.407377 83 134ft 0kts
08-Apr-21 12:31 33.939788 -118.407377 83 134ft 0kts
08-Apr-21 12:32 33.939725 -118.407989 83 134ft 2kts
08-Apr-21 12:33 33.939697 -118.408261 83 134ft 0kts
08-Apr-21 12:34 33.939697 -118.408261 83 134ft 0kts
08-Apr-21 12:35 33.939482 -118.408027 167 134ft 0kts
08-Apr-21 12:36 33.938566 -118.407537 131 134ft 6kts
08-Apr-21 12:37 33.938415 -118.403765 81 134ft 24kts
08-Apr-21 12:38 33.939068 -118.397129 83 134ft 15kts
08-Apr-21 12:39 33.939789 -118.389920 77 134ft 28kts
08-Apr-21 12:40 33.940627 -118.382139 84 134ft 18kts
08-Apr-21 12:41 33.940703 -118.381108 89 134ft 0kts
08-Apr-21 12:42 33.940703 -118.381106 89 134ft 0kts
08-Apr-21 12:43 33.939883 -118.380408 227 134ft 5kts
08-Apr-21 12:44 33.938313 -118.394935 262 135ft 137kts
08-Apr-21 12:45 33.933421 -118.446497 260 2617ft 165kts
08-Apr-21 12:46 33.915484 -118.511529 247 4379ft 243kts
08-Apr-21 12:47 33.885097 -118.592840 243 7526ft 276kts
08-Apr-21 12:48 33.815433 -118.608841 147 10651ft 320kts
08-Apr-21 12:49 33.783685 -118.501654 78 12734ft 374kts
08-Apr-21 12:50 33.850293 -118.419701 8 15816ft 355kts
08-Apr-21 12:51 33.941011 -118.359893 30 18714ft 391kts
08-Apr-21 12:52 34.025169 -118.270817 46 21465ft 416kts
08-Apr-21 12:53 34.091192 -118.153628 50 23098ft 424kts
08-Apr-21 12:54 34.157551 -118.035870 50 25725ft 422kts
08-Apr-21 12:55 34.223021 -117.920088 49 27113ft 426kts
08-Apr-21 12:56 34.288923 -117.802194 49 27115ft 421kts
08-Apr-21 12:57 34.354235 -117.685081 49 27106ft 419kts
08-Apr-21 12:58 34.423385 -117.569433 47 27109ft 427kts
08-Apr-21 12:59 34.492269 -117.453650 47 27102ft 419kts
08-Apr-21 13:00 34.544932 -117.364601 47 27109ft 425kts
08-Apr-21 13:01 34.613740 -117.249251 47 27105ft 423kts
08-Apr-21 13:02 34.682305 -117.133169 47 27108ft 425kts
08-Apr-21 13:03 34.750794 -117.017132 47 27093ft 422kts
08-Apr-21 13:04 34.819151 -116.900528 48 27075ft 430kts
08-Apr-21 13:05 34.887216 -116.783759 48 27050ft 422kts
08-Apr-21 13:06 34.955703 -116.666077 48 27051ft 425kts
08-Apr-21 13:07 35.022215 -116.547185 49 26406ft 426kts
08-Apr-21 13:08 35.089073 -116.427651 50 24563ft 422kts
08-Apr-21 13:09 35.152319 -116.339209 40 23179ft 405kts
08-Apr-21 13:10 35.228554 -116.240642 40 21552ft 393kts
08-Apr-21 13:11 35.300268 -116.142368 42 19956ft 382kts
08-Apr-21 13:12 35.370138 -116.046843 42 18378ft 370kts
08-Apr-21 13:13 35.437376 -115.954159 43 16865ft 358kts
08-Apr-21 13:14 35.502257 -115.864346 43 15359ft 340kts
08-Apr-21 13:15 35.563356 -115.779714 44 13933ft 326kts
08-Apr-21 13:16 35.616469 -115.690637 57 12533ft 323kts
08-Apr-21 13:17 35.661565 -115.599335 37 11938ft 297kts
08-Apr-21 13:18 35.734773 -115.551724 24 11994ft 300kts
08-Apr-21 13:19 35.807409 -115.500549 27 11996ft 300kts
08-Apr-21 13:20 35.879945 -115.449500 27 11997ft 300kts
08-Apr-21 13:21 35.952834 -115.398522 26 11675ft 303kts
08-Apr-21 13:22 36.016784 -115.334825 68 10907ft 303kts
08-Apr-21 13:24 36.009293 -115.232528 93 10033ft 294kts
08-Apr-21 13:25 36.003856 -115.135060 92 9242ft 270kts
08-Apr-21 13:26 35.998929 -115.047252 91 8356ft 249kts
08-Apr-21 13:27 35.999017 -114.962486 90 7206ft 247kts
08-Apr-21 13:28 36.028601 -114.897544 16 6153ft 229kts
08-Apr-21 13:29 36.069572 -114.920451 298 5232ft 220kts
08-Apr-21 13:30 36.073727 -114.992091 268 5044ft 216kts
08-Apr-21 13:31 36.074564 -115.060773 272 3473ft 185kts
08-Apr-21 13:32 36.073655 -115.118074 271 2294ft 145kts
08-Apr-21 13:33 36.074090 -115.144168 294 2123ft 14kts
08-Apr-21 13:34 36.075588 -115.146408 355 2123ft 9kts
08-Apr-21 13:35 36.078137 -115.147014 327 2123ft 9kts
08-Apr-21 13:36 36.081509 -115.149347 307 2123ft 10kts
08-Apr-21 13:37 36.082296 -115.150530 329 2123ft 0kts
08-Apr-21 13:38 36.082296 -115.150530 329 2123ft 0kts
08-Apr-21 13:39 36.082296 -115.150530 329 2123ft 0kts
08-Apr-21 13:40 36.082296 -115.150530 329 2123ft 0kts

Navigation Log

Ident Type
Flight plan parsing failed, navigation log unavailable